sensor_id;sensor_type;location;lat;lon;timestamp;P1;P2;P0
50837;PMS5003;36815;50.884;20.584;2022-07-10T00:00:09;12;12;8
50837;PMS5003;36815;50.884;20.584;2022-07-10T00:07:18;8;8;5
50837;PMS5003;36815;50.884;20.584;2022-07-10T00:14:16;8;8;5
50837;PMS5003;36815;50.884;20.584;2022-07-10T00:21:17;8;8;5
50837;PMS5003;36815;50.884;20.584;2022-07-10T00:28:03;8;8;5
50837;PMS5003;36815;50.884;20.584;2022-07-10T00:35:17;7;6;6
50837;PMS5003;36815;50.884;20.584;2022-07-10T00:42:27;7;6;6
50837;PMS5003;36815;50.884;20.584;2022-07-10T00:49:02;7;6;6
50837;PMS5003;36815;50.884;20.584;2022-07-10T00:56:11;7;6;6
50837;PMS5003;36815;50.884;20.584;2022-07-10T01:07:19;10;9;7
50837;PMS5003;36815;50.884;20.584;2022-07-10T01:14:02;10;9;7
50837;PMS5003;36815;50.884;20.584;2022-07-10T01:21:06;10;9;7
50837;PMS5003;36815;50.884;20.584;2022-07-10T01:28:16;10;9;7
50837;PMS5003;36815;50.884;20.584;2022-07-10T01:35:24;9;9;7
50837;PMS5003;36815;50.884;20.584;2022-07-10T01:42:06;9;9;7
50837;PMS5003;36815;50.884;20.584;2022-07-10T01:49:20;9;9;7
50837;PMS5003;36815;50.884;20.584;2022-07-10T01:56:03;9;9;7
50837;PMS5003;36815;50.884;20.584;2022-07-10T02:00:07;9;9;7
50837;PMS5003;36815;50.884;20.584;2022-07-10T02:07:05;7;7;5
50837;PMS5003;36815;50.884;20.584;2022-07-10T02:14:17;7;7;5
50837;PMS5003;36815;50.884;20.584;2022-07-10T02:21:08;7;7;5
50837;PMS5003;36815;50.884;20.584;2022-07-10T02:28:10;7;7;5
50837;PMS5003;36815;50.884;20.584;2022-07-10T02:35:04;9;9;7
50837;PMS5003;36815;50.884;20.584;2022-07-10T02:42:07;9;9;7
50837;PMS5003;36815;50.884;20.584;2022-07-10T02:49:06;9;9;7
50837;PMS5003;36815;50.884;20.584;2022-07-10T02:56:17;9;9;7
50837;PMS5003;36815;50.884;20.584;2022-07-10T03:00:19;9;9;7
50837;PMS5003;36815;50.884;20.584;2022-07-10T03:07:06;10;10;8
50837;PMS5003;36815;50.884;20.584;2022-07-10T03:14:21;10;10;8
50837;PMS5003;36815;50.884;20.584;2022-07-10T03:21:18;10;10;8
50837;PMS5003;36815;50.884;20.584;2022-07-10T03:28:13;10;10;8
50837;PMS5003;36815;50.884;20.584;2022-07-10T03:35:02;10;9;8
50837;PMS5003;36815;50.884;20.584;2022-07-10T03:42:03;10;9;8
50837;PMS5003;36815;50.884;20.584;2022-07-10T03:49:17;10;9;8
50837;PMS5003;36815;50.884;20.584;2022-07-10T04:00:09;10;9;8
50837;PMS5003;36815;50.884;20.584;2022-07-10T04:07:06;10;9;7
50837;PMS5003;36815;50.884;20.584;2022-07-10T04:14:05;10;9;7
50837;PMS5003;36815;50.884;20.584;2022-07-10T04:21:02;10;9;7
50837;PMS5003;36815;50.884;20.584;2022-07-10T04:28:02;10;9;7
50837;PMS5003;36815;50.884;20.584;2022-07-10T04:35:09;8;8;7
50837;PMS5003;36815;50.884;20.584;2022-07-10T04:42:20;8;8;7
50837;PMS5003;36815;50.884;20.584;2022-07-10T04:49:02;8;8;7
50837;PMS5003;36815;50.884;20.584;2022-07-10T04:56:04;8;8;7
50837;PMS5003;36815;50.884;20.584;2022-07-10T05:00:03;8;8;7
50837;PMS5003;36815;50.884;20.584;2022-07-10T05:07:19;9;9;7
50837;PMS5003;36815;50.884;20.584;2022-07-10T05:14:17;9;9;7
50837;PMS5003;36815;50.884;20.584;2022-07-10T05:21:19;9;9;7
50837;PMS5003;36815;50.884;20.584;2022-07-10T05:28:20;9;9;7
50837;PMS5003;36815;50.884;20.584;2022-07-10T05:35:07;7;6;4
50837;PMS5003;36815;50.884;20.584;2022-07-10T05:42:06;7;6;4
50837;PMS5003;36815;50.884;20.584;2022-07-10T05:49:02;7;6;4
50837;PMS5003;36815;50.884;20.584;2022-07-10T05:56:03;7;6;4
50837;PMS5003;36815;50.884;20.584;2022-07-10T06:00:01;7;6;4
50837;PMS5003;36815;50.884;20.584;2022-07-10T06:07:18;5;5;5
50837;PMS5003;36815;50.884;20.584;2022-07-10T06:14:17;5;5;5
50837;PMS5003;36815;50.884;20.584;2022-07-10T06:21:03;5;5;5
50837;PMS5003;36815;50.884;20.584;2022-07-10T06:28:03;5;5;5
50837;PMS5003;36815;50.884;20.584;2022-07-10T06:35:21;5;4;3
50837;PMS5003;36815;50.884;20.584;2022-07-10T06:42:16;5;4;3
50837;PMS5003;36815;50.884;20.584;2022-07-10T06:49:08;5;4;3
50837;PMS5003;36815;50.884;20.584;2022-07-10T06:56:05;5;4;3
50837;PMS5003;36815;50.884;20.584;2022-07-10T07:00:21;5;4;3
50837;PMS5003;36815;50.884;20.584;2022-07-10T07:07:15;4;4;3
50837;PMS5003;36815;50.884;20.584;2022-07-10T07:14:02;4;4;3
50837;PMS5003;36815;50.884;20.584;2022-07-10T07:28:05;4;4;3
50837;PMS5003;36815;50.884;20.584;2022-07-10T07:42:04;2;2;1
50837;PMS5003;36815;50.884;20.584;2022-07-10T07:49:18;2;2;1
50837;PMS5003;36815;50.884;20.584;2022-07-10T07:56:15;2;2;1
50837;PMS5003;36815;50.884;20.584;2022-07-10T08:00:15;2;2;1
50837;PMS5003;36815;50.884;20.584;2022-07-10T08:14:04;12;11;7
50837;PMS5003;36815;50.884;20.584;2022-07-10T08:21:04;12;11;7
50837;PMS5003;36815;50.884;20.584;2022-07-10T08:28:21;12;11;7
50837;PMS5003;36815;50.884;20.584;2022-07-10T08:42:25;3;3;2
50837;PMS5003;36815;50.884;20.584;2022-07-10T08:49:17;3;3;2
50837;PMS5003;36815;50.884;20.584;2022-07-10T08:56:14;3;3;2
50837;PMS5003;36815;50.884;20.584;2022-07-10T09:00:18;3;3;2
50837;PMS5003;36815;50.884;20.584;2022-07-10T09:14:28;10;9;5
50837;PMS5003;36815;50.884;20.584;2022-07-10T09:21:27;10;9;5
50837;PMS5003;36815;50.884;20.584;2022-07-10T09:28:05;10;9;5
50837;PMS5003;36815;50.884;20.584;2022-07-10T09:42:41;2;2;2
50837;PMS5003;36815;50.884;20.584;2022-07-10T09:49:30;2;2;2
50837;PMS5003;36815;50.884;20.584;2022-07-10T09:56:33;2;2;2
50837;PMS5003;36815;50.884;20.584;2022-07-10T10:00:02;2;2;2
50837;PMS5003;36815;50.884;20.584;2022-07-10T10:14:07;3;3;3
50837;PMS5003;36815;50.884;20.584;2022-07-10T10:21:08;3;3;3
50837;PMS5003;36815;50.884;20.584;2022-07-10T10:28:28;3;3;3
50837;PMS5003;36815;50.884;20.584;2022-07-10T10:35:47;3;3;3
50837;PMS5003;36815;50.884;20.584;2022-07-10T10:42:46;2;2;1
50837;PMS5003;36815;50.884;20.584;2022-07-10T10:49:07;2;2;1
50837;PMS5003;36815;50.884;20.584;2022-07-10T10:56:24;2;2;1
50837;PMS5003;36815;50.884;20.584;2022-07-10T11:00:29;2;2;1
50837;PMS5003;36815;50.884;20.584;2022-07-10T11:14:05;2;2;2
50837;PMS5003;36815;50.884;20.584;2022-07-10T11:21:46;2;2;2
50837;PMS5003;36815;50.884;20.584;2022-07-10T11:28:54;2;2;2
50837;PMS5003;36815;50.884;20.584;2022-07-10T11:35:13;2;2;2
50837;PMS5003;36815;50.884;20.584;2022-07-10T11:42:03;1;1;0
50837;PMS5003;36815;50.884;20.584;2022-07-10T11:49:19;1;1;0
50837;PMS5003;36815;50.884;20.584;2022-07-10T11:56:22;1;1;0
50837;PMS5003;36815;50.884;20.584;2022-07-10T12:00:26;1;1;0
50837;PMS5003;36815;50.884;20.584;2022-07-10T12:14:13;1;1;1
50837;PMS5003;36815;50.884;20.584;2022-07-10T12:21:14;1;1;1
50837;PMS5003;36815;50.884;20.584;2022-07-10T12:28:18;1;1;1
50837;PMS5003;36815;50.884;20.584;2022-07-10T12:35:14;1;1;1
50837;PMS5003;36815;50.884;20.584;2022-07-10T12:42:27;2;2;2
50837;PMS5003;36815;50.884;20.584;2022-07-10T12:49:18;2;2;2
50837;PMS5003;36815;50.884;20.584;2022-07-10T12:56:01;2;2;2
50837;PMS5003;36815;50.884;20.584;2022-07-10T13:00:16;2;2;2
50837;PMS5003;36815;50.884;20.584;2022-07-10T13:07:28;2;2;2
50837;PMS5003;36815;50.884;20.584;2022-07-10T13:14:16;0;0;0
50837;PMS5003;36815;50.884;20.584;2022-07-10T13:21:04;0;0;0
50837;PMS5003;36815;50.884;20.584;2022-07-10T13:28:21;0;0;0
50837;PMS5003;36815;50.884;20.584;2022-07-10T13:35:13;0;0;0
50837;PMS5003;36815;50.884;20.584;2022-07-10T13:42:06;2;2;1
50837;PMS5003;36815;50.884;20.584;2022-07-10T13:49:23;2;2;1
50837;PMS5003;36815;50.884;20.584;2022-07-10T13:56:04;2;2;1
50837;PMS5003;36815;50.884;20.584;2022-07-10T14:00:01;2;2;1
50837;PMS5003;36815;50.884;20.584;2022-07-10T14:07:05;2;2;1
50837;PMS5003;36815;50.884;20.584;2022-07-10T14:14:05;0;0;0
50837;PMS5003;36815;50.884;20.584;2022-07-10T14:21:14;0;0;0
50837;PMS5003;36815;50.884;20.584;2022-07-10T14:28:15;0;0;0
50837;PMS5003;36815;50.884;20.584;2022-07-10T14:35:09;0;0;0
50837;PMS5003;36815;50.884;20.584;2022-07-10T14:42:05;1;1;1
50837;PMS5003;36815;50.884;20.584;2022-07-10T14:49:20;1;1;1
50837;PMS5003;36815;50.884;20.584;2022-07-10T14:56:02;1;1;1
50837;PMS5003;36815;50.884;20.584;2022-07-10T15:00:01;1;1;1
50837;PMS5003;36815;50.884;20.584;2022-07-10T15:07:02;1;1;1
50837;PMS5003;36815;50.884;20.584;2022-07-10T15:14:02;1;1;0
50837;PMS5003;36815;50.884;20.584;2022-07-10T15:21:17;1;1;0
50837;PMS5003;36815;50.884;20.584;2022-07-10T15:28:23;1;1;0
50837;PMS5003;36815;50.884;20.584;2022-07-10T15:35:23;1;1;0
50837;PMS5003;36815;50.884;20.584;2022-07-10T15:42:18;2;1;0
50837;PMS5003;36815;50.884;20.584;2022-07-10T15:49:24;2;1;0
50837;PMS5003;36815;50.884;20.584;2022-07-10T15:56:18;2;1;0
50837;PMS5003;36815;50.884;20.584;2022-07-10T16:00:23;2;1;0
50837;PMS5003;36815;50.884;20.584;2022-07-10T16:07:15;2;1;0
50837;PMS5003;36815;50.884;20.584;2022-07-10T16:14:16;1;1;1
50837;PMS5003;36815;50.884;20.584;2022-07-10T16:21:14;1;1;1
50837;PMS5003;36815;50.884;20.584;2022-07-10T16:28:04;1;1;1
50837;PMS5003;36815;50.884;20.584;2022-07-10T16:35:03;1;1;1
50837;PMS5003;36815;50.884;20.584;2022-07-10T16:49:20;0;0;0
50837;PMS5003;36815;50.884;20.584;2022-07-10T16:56:02;0;0;0
50837;PMS5003;36815;50.884;20.584;2022-07-10T17:07:09;0;0;0
50837;PMS5003;36815;50.884;20.584;2022-07-10T17:21:14;1;1;0
50837;PMS5003;36815;50.884;20.584;2022-07-10T17:28:19;1;1;0
50837;PMS5003;36815;50.884;20.584;2022-07-10T17:35:19;1;1;0
50837;PMS5003;36815;50.884;20.584;2022-07-10T17:49:03;1;1;0
50837;PMS5003;36815;50.884;20.584;2022-07-10T17:56:03;1;1;0
50837;PMS5003;36815;50.884;20.584;2022-07-10T18:00:14;1;1;0
50837;PMS5003;36815;50.884;20.584;2022-07-10T18:07:05;1;1;0
50837;PMS5003;36815;50.884;20.584;2022-07-10T18:21:14;1;1;1
50837;PMS5003;36815;50.884;20.584;2022-07-10T18:28:17;1;1;1
50837;PMS5003;36815;50.884;20.584;2022-07-10T18:35:18;1;1;1
50837;PMS5003;36815;50.884;20.584;2022-07-10T18:49:06;1;1;0
50837;PMS5003;36815;50.884;20.584;2022-07-10T18:56:17;1;1;0
50837;PMS5003;36815;50.884;20.584;2022-07-10T19:00:12;1;1;0
50837;PMS5003;36815;50.884;20.584;2022-07-10T19:07:08;1;1;0
50837;PMS5003;36815;50.884;20.584;2022-07-10T19:21:03;2;2;1
50837;PMS5003;36815;50.884;20.584;2022-07-10T19:28:17;2;2;1
50837;PMS5003;36815;50.884;20.584;2022-07-10T19:35:15;2;2;1
50837;PMS5003;36815;50.884;20.584;2022-07-10T19:49:19;2;2;1
50837;PMS5003;36815;50.884;20.584;2022-07-10T19:56:14;2;2;1
50837;PMS5003;36815;50.884;20.584;2022-07-10T20:00:11;2;2;1
50837;PMS5003;36815;50.884;20.584;2022-07-10T20:07:16;2;2;1
50837;PMS5003;36815;50.884;20.584;2022-07-10T20:21:19;1;1;0
50837;PMS5003;36815;50.884;20.584;2022-07-10T20:28:13;1;1;0
50837;PMS5003;36815;50.884;20.584;2022-07-10T20:35:15;1;1;0
50837;PMS5003;36815;50.884;20.584;2022-07-10T20:49:19;2;2;1
50837;PMS5003;36815;50.884;20.584;2022-07-10T20:56:01;2;2;1
50837;PMS5003;36815;50.884;20.584;2022-07-10T21:00:17;2;2;1
50837;PMS5003;36815;50.884;20.584;2022-07-10T21:07:16;2;2;1
50837;PMS5003;36815;50.884;20.584;2022-07-10T21:21:04;2;2;2
50837;PMS5003;36815;50.884;20.584;2022-07-10T21:28:17;2;2;2
50837;PMS5003;36815;50.884;20.584;2022-07-10T21:35:21;2;2;2
50837;PMS5003;36815;50.884;20.584;2022-07-10T21:49:04;2;2;1
50837;PMS5003;36815;50.884;20.584;2022-07-10T21:56:16;2;2;1
50837;PMS5003;36815;50.884;20.584;2022-07-10T22:00:03;2;2;1
50837;PMS5003;36815;50.884;20.584;2022-07-10T22:07:02;2;2;1
50837;PMS5003;36815;50.884;20.584;2022-07-10T22:14:18;2;2;1
50837;PMS5003;36815;50.884;20.584;2022-07-10T22:21:18;2;2;1
50837;PMS5003;36815;50.884;20.584;2022-07-10T22:28:18;2;2;1
50837;PMS5003;36815;50.884;20.584;2022-07-10T22:35:02;2;2;1
50837;PMS5003;36815;50.884;20.584;2022-07-10T22:42:03;2;2;1
50837;PMS5003;36815;50.884;20.584;2022-07-10T22:49:18;2;2;1
50837;PMS5003;36815;50.884;20.584;2022-07-10T22:56:06;2;2;1
50837;PMS5003;36815;50.884;20.584;2022-07-10T23:07:19;1;1;1
50837;PMS5003;36815;50.884;20.584;2022-07-10T23:14:02;1;1;1
50837;PMS5003;36815;50.884;20.584;2022-07-10T23:21:17;1;1;1
50837;PMS5003;36815;50.884;20.584;2022-07-10T23:28:18;1;1;1
50837;PMS5003;36815;50.884;20.584;2022-07-10T23:35:16;2;2;1
50837;PMS5003;36815;50.884;20.584;2022-07-10T23:42:17;2;2;1
50837;PMS5003;36815;50.884;20.584;2022-07-10T23:56:02;2;2;1
